createdAt,value
2022-12-17T00:00:28.096Z,28.77
2022-12-17T00:03:14.597Z,32.00
2022-12-17T00:05:56.539Z,32.13
2022-12-17T00:08:41.616Z,32.20
2022-12-17T00:11:23.477Z,32.97
2022-12-17T00:14:05.475Z,31.77
2022-12-17T00:16:47.538Z,31.83
2022-12-17T00:19:29.300Z,33.45
2022-12-17T00:22:11.105Z,31.70
2022-12-17T00:24:52.903Z,31.73
2022-12-17T00:27:38.303Z,30.63
2022-12-17T00:30:20.596Z,31.25
2022-12-17T00:33:02.656Z,30.77
2022-12-17T00:35:44.740Z,29.98
2022-12-17T00:38:31.830Z,30.48
2022-12-17T00:41:13.660Z,29.85
2022-12-17T00:43:55.697Z,29.05
2022-12-17T00:46:38.302Z,28.13
2022-12-17T00:49:20.279Z,29.50
2022-12-17T00:52:02.350Z,29.15
2022-12-17T00:54:44.165Z,30.10
2022-12-17T00:57:26.303Z,32.70
2022-12-17T01:00:08.248Z,30.95
2022-12-17T01:02:51.348Z,31.73
2022-12-17T01:05:34.140Z,29.42
2022-12-17T01:08:31.486Z,30.13
2022-12-17T01:11:16.438Z,29.60
2022-12-17T01:13:58.446Z,31.42
2022-12-17T01:16:40.589Z,32.83
2022-12-17T01:19:22.532Z,29.60
2022-12-17T01:22:04.616Z,30.88
2022-12-17T01:24:46.638Z,32.65
2022-12-17T01:27:28.701Z,30.15
2022-12-17T01:30:11.001Z,31.77
2022-12-17T01:32:53.015Z,31.80
2022-12-17T01:35:34.858Z,29.70
2022-12-17T01:38:16.897Z,31.77
2022-12-17T01:40:58.935Z,32.55
2022-12-17T01:43:50.447Z,31.35
2022-12-17T01:46:33.280Z,29.33
2022-12-17T01:49:15.333Z,31.17
2022-12-17T01:52:01.875Z,30.88
2022-12-17T01:54:43.765Z,31.40
2022-12-17T01:57:25.797Z,30.25
2022-12-17T02:00:25.814Z,29.52
2022-12-17T02:03:12.469Z,32.00
2022-12-17T02:06:08.052Z,31.38
2022-12-17T02:09:03.142Z,29.73
2022-12-17T02:11:56.220Z,30.77
2022-12-17T02:14:48.476Z,29.27
2022-12-17T02:17:35.145Z,29.20
2022-12-17T02:20:33.335Z,28.95
2022-12-17T02:23:16.382Z,30.77
2022-12-17T02:26:13.070Z,31.83
2022-12-17T02:28:59.961Z,32.40
2022-12-17T02:34:25.342Z,29.02
2022-12-17T02:37:07.347Z,31.27
2022-12-17T02:39:49.168Z,30.40
2022-12-17T02:42:32.221Z,29.83
2022-12-17T02:45:14.298Z,29.80
2022-12-17T02:47:57.113Z,29.23
2022-12-17T02:50:39.375Z,31.90
2022-12-17T02:53:22.501Z,28.80
2022-12-17T02:56:04.505Z,30.98
2022-12-17T02:58:47.355Z,30.75
2022-12-17T03:01:29.719Z,32.83
2022-12-17T03:04:11.712Z,30.27
2022-12-17T03:06:53.742Z,30.38
2022-12-17T03:09:35.560Z,33.58
2022-12-17T03:12:17.560Z,31.90
2022-12-17T03:14:59.387Z,31.40
2022-12-17T03:17:41.427Z,31.48
2022-12-17T03:20:24.265Z,32.05
2022-12-17T03:23:06.283Z,31.25
2022-12-17T03:25:48.150Z,30.73
2022-12-17T03:28:30.098Z,32.65
2022-12-17T03:31:14.289Z,32.17
2022-12-17T03:34:00.918Z,30.40
2022-12-17T03:36:43.177Z,33.20
2022-12-17T03:39:24.940Z,32.63
2022-12-17T03:42:07.073Z,31.63
2022-12-17T03:44:49.095Z,32.97
2022-12-17T03:47:31.091Z,33.20
2022-12-17T03:50:13.166Z,30.98
2022-12-17T03:52:55.186Z,29.85
2022-12-17T03:55:37.022Z,30.92
2022-12-17T03:58:19.087Z,31.25
2022-12-17T04:01:01.155Z,32.15
2022-12-17T04:03:43.172Z,33.30
2022-12-17T04:06:25.228Z,33.50
2022-12-17T04:09:10.333Z,31.55
2022-12-17T04:11:52.378Z,31.55
2022-12-17T04:14:34.397Z,32.10
2022-12-17T04:17:16.209Z,35.53
2022-12-17T04:19:57.963Z,33.20
2022-12-17T04:22:39.821Z,32.13
2022-12-17T04:25:22.114Z,33.05
2022-12-17T04:28:04.144Z,34.78
2022-12-17T04:30:45.981Z,33.78
2022-12-17T04:33:28.252Z,32.95
2022-12-17T04:36:10.307Z,35.95
2022-12-17T04:38:52.327Z,33.22
2022-12-17T04:41:34.401Z,35.97
2022-12-17T04:44:16.423Z,35.00
2022-12-17T04:46:58.747Z,34.17
2022-12-17T04:49:40.798Z,34.33
2022-12-17T04:52:22.587Z,35.28
2022-12-17T04:55:04.648Z,33.85
2022-12-17T04:57:46.683Z,34.25
2022-12-17T05:00:29.191Z,36.35
2022-12-17T05:03:11.095Z,34.63
2022-12-17T05:05:53.086Z,36.03
2022-12-17T05:08:39.738Z,34.47
2022-12-17T05:11:23.348Z,36.95
2022-12-17T05:14:05.361Z,33.50
2022-12-17T05:16:47.425Z,34.95
2022-12-17T05:19:31.290Z,35.28
2022-12-17T05:22:13.271Z,34.75
2022-12-17T05:24:55.116Z,35.42
2022-12-17T05:27:37.122Z,32.85
2022-12-17T05:30:19.702Z,34.90
2022-12-17T05:33:01.746Z,36.35
2022-12-17T05:35:43.885Z,35.08
2022-12-17T05:38:26.618Z,34.22
2022-12-17T05:41:12.242Z,36.35
2022-12-17T05:43:54.040Z,33.25
2022-12-17T05:46:36.399Z,32.75
2022-12-17T05:49:18.399Z,34.70
2022-12-17T05:52:00.429Z,33.33
2022-12-17T05:54:42.748Z,33.03
2022-12-17T05:57:24.800Z,33.15
2022-12-17T06:00:06.586Z,32.97
2022-12-17T06:02:48.442Z,33.30
2022-12-17T06:05:30.429Z,34.33
2022-12-17T06:08:27.799Z,33.92
2022-12-17T06:11:10.155Z,32.13
2022-12-17T06:13:52.150Z,32.72
2022-12-17T06:16:33.998Z,32.88
2022-12-17T06:19:15.996Z,32.30
2022-12-17T06:21:57.847Z,33.67
2022-12-17T06:24:45.554Z,32.95
2022-12-17T06:27:28.060Z,34.92
2022-12-17T06:30:14.260Z,32.72
2022-12-17T06:33:00.311Z,33.30
2022-12-17T06:35:42.424Z,31.60
2022-12-17T06:38:24.431Z,34.92
2022-12-17T06:41:07.771Z,33.97
2022-12-17T06:43:49.780Z,34.20
2022-12-17T06:46:31.646Z,32.72
2022-12-17T06:49:13.668Z,34.17
2022-12-17T06:51:55.687Z,34.10
2022-12-17T06:54:37.522Z,33.97
2022-12-17T06:57:19.517Z,34.53
2022-12-17T07:00:01.329Z,34.92
2022-12-17T07:02:43.534Z,34.40
2022-12-17T07:05:25.680Z,37.17
2022-12-17T07:08:15.675Z,36.67
2022-12-17T07:10:57.701Z,34.95
2022-12-17T07:13:39.972Z,35.88
2022-12-17T07:16:22.862Z,36.38
2022-12-17T07:19:04.892Z,36.33
2022-12-17T07:21:46.906Z,33.78
2022-12-17T07:24:28.728Z,37.50
2022-12-17T07:27:10.744Z,35.88
2022-12-17T07:29:52.578Z,38.17
2022-12-17T07:32:34.595Z,35.58
2022-12-17T07:35:16.686Z,36.10
2022-12-17T07:37:58.708Z,35.90
2022-12-17T07:40:40.759Z,36.33
2022-12-17T07:43:27.406Z,35.97
2022-12-17T07:46:09.297Z,33.63
2022-12-17T07:48:51.245Z,35.17
2022-12-17T07:51:36.385Z,34.60
2022-12-17T07:54:18.143Z,34.55
2022-12-17T07:56:59.956Z,35.00
2022-12-17T07:59:41.988Z,36.00
2022-12-17T08:02:26.017Z,35.80
2022-12-17T08:05:08.145Z,34.78
2022-12-17T08:07:49.960Z,35.60
2022-12-17T08:10:35.022Z,35.47
2022-12-17T08:13:19.417Z,35.05
2022-12-17T08:16:01.956Z,34.63
2022-12-17T08:18:44.546Z,35.13
2022-12-17T08:21:26.583Z,33.22
2022-12-17T08:24:08.354Z,35.58
2022-12-17T08:26:50.152Z,35.53
2022-12-17T08:29:33.002Z,33.25
2022-12-17T08:32:14.998Z,34.75
2022-12-17T08:35:01.562Z,34.95
2022-12-17T08:37:43.491Z,33.65
2022-12-17T08:40:25.767Z,35.15
2022-12-17T08:43:12.704Z,36.55
2022-12-17T08:45:54.790Z,36.17
2022-12-17T08:48:36.849Z,35.78
2022-12-17T08:51:20.089Z,34.88
2022-12-17T08:54:01.924Z,33.47
2022-12-17T08:56:43.940Z,33.55
2022-12-17T08:59:26.011Z,32.42
2022-12-17T09:02:07.953Z,33.38
2022-12-17T09:04:49.802Z,34.38
2022-12-17T09:07:31.905Z,32.90
2022-12-17T09:10:13.887Z,32.22
2022-12-17T09:12:58.630Z,31.13
2022-12-17T09:15:44.714Z,32.58
2022-12-17T09:18:26.758Z,32.42
2022-12-17T09:21:10.080Z,34.33
2022-12-17T09:23:52.110Z,33.50
2022-12-17T09:26:33.925Z,34.38
2022-12-17T09:29:15.924Z,34.38
2022-12-17T09:31:57.766Z,34.92
2022-12-17T09:34:39.762Z,32.47
2022-12-17T09:37:21.616Z,31.80
2022-12-17T09:40:03.660Z,32.70
2022-12-17T09:43:10.249Z,35.03
2022-12-17T09:46:02.311Z,31.52
2022-12-17T09:49:04.030Z,33.53
2022-12-17T09:51:48.666Z,32.78
2022-12-17T09:54:42.995Z,32.25
2022-12-17T09:57:29.446Z,32.35
2022-12-17T10:00:11.440Z,34.13
2022-12-17T10:02:54.205Z,33.58
2022-12-17T10:05:41.194Z,35.35
2022-12-17T10:08:29.111Z,35.50
2022-12-17T10:11:11.170Z,35.13
2022-12-17T10:13:53.183Z,36.88
2022-12-17T10:16:48.822Z,35.53
2022-12-17T10:19:48.295Z,34.60
2022-12-17T10:22:32.902Z,34.25
2022-12-17T10:25:21.808Z,34.65
2022-12-17T10:28:03.912Z,34.50
2022-12-17T10:30:55.428Z,35.28
2022-12-17T10:33:37.752Z,35.80
2022-12-17T10:36:34.073Z,35.20
2022-12-17T10:39:17.193Z,34.33
2022-12-17T10:41:59.283Z,36.17
2022-12-17T10:44:44.584Z,35.05
2022-12-17T10:47:28.720Z,35.83
2022-12-17T10:50:13.265Z,32.22
2022-12-17T10:52:55.369Z,33.78
2022-12-17T10:55:42.509Z,34.40
2022-12-17T10:58:30.204Z,33.65
2022-12-17T11:01:16.457Z,32.65
2022-12-17T11:04:09.122Z,33.22
2022-12-17T11:06:56.065Z,33.78
2022-12-17T11:12:30.114Z,32.70
2022-12-17T11:15:18.337Z,33.58
2022-12-17T11:18:02.287Z,32.17
2022-12-17T11:21:10.405Z,33.42
2022-12-17T11:23:55.303Z,34.78
2022-12-17T11:26:37.763Z,33.55
2022-12-17T11:29:19.768Z,32.30
2022-12-17T11:32:11.867Z,31.10
2022-12-17T11:35:14.631Z,32.35
2022-12-17T11:38:09.491Z,29.27
2022-12-17T11:40:56.657Z,31.00
2022-12-17T11:43:45.086Z,30.83
2022-12-17T11:46:55.946Z,31.00
2022-12-17T11:49:37.860Z,31.08
2022-12-17T11:52:23.205Z,30.52
2022-12-17T11:55:35.844Z,33.20
2022-12-17T11:58:25.959Z,33.40
2022-12-17T12:01:24.209Z,30.98
2022-12-17T12:04:07.331Z,32.88
2022-12-17T12:07:08.222Z,32.60
2022-12-17T12:10:09.720Z,31.38
2022-12-17T12:13:08.158Z,32.50
2022-12-17T12:16:21.175Z,32.28
2022-12-17T12:19:19.392Z,31.80
2022-12-17T12:22:16.576Z,31.35
2022-12-17T12:24:58.528Z,31.00
2022-12-17T12:27:51.091Z,30.48
2022-12-17T12:30:37.233Z,30.50
2022-12-17T12:33:42.067Z,31.30
2022-12-17T12:36:27.711Z,29.25
2022-12-17T12:39:11.531Z,31.67
2022-12-17T12:42:04.137Z,30.15
2022-12-17T12:45:07.405Z,31.55
2022-12-17T12:48:14.534Z,32.47
2022-12-17T12:51:10.885Z,32.22
2022-12-17T12:53:52.940Z,33.05
2022-12-17T12:56:48.284Z,31.90
2022-12-17T12:59:46.250Z,32.92
2022-12-17T13:02:35.281Z,30.95
2022-12-17T13:05:17.258Z,32.45
2022-12-17T13:07:43.897Z,31.30
2022-12-17T13:10:28.586Z,33.05
2022-12-17T13:12:55.624Z,32.28
2022-12-17T13:15:33.440Z,32.10
2022-12-17T13:18:16.220Z,31.55
2022-12-17T13:20:42.916Z,33.75
2022-12-17T13:23:09.555Z,33.42
2022-12-17T13:25:36.864Z,34.08
2022-12-17T13:28:04.003Z,35.08
2022-12-17T13:30:36.441Z,33.88
2022-12-17T13:33:33.578Z,34.50
2022-12-17T13:36:15.521Z,33.53
2022-12-17T13:39:03.843Z,33.97
2022-12-17T13:41:33.278Z,35.45
2022-12-17T13:44:04.680Z,34.20
2022-12-17T13:46:48.090Z,34.75
2022-12-17T13:49:32.072Z,35.70
2022-12-17T13:52:06.473Z,34.38
2022-12-17T13:54:36.501Z,35.05
2022-12-17T13:57:08.493Z,34.03
2022-12-17T13:59:35.187Z,33.08
2022-12-17T14:02:01.994Z,34.95
2022-12-17T14:04:30.318Z,34.00
2022-12-17T14:07:00.922Z,35.85
2022-12-17T14:09:34.958Z,35.50
2022-12-17T14:12:19.792Z,33.58
2022-12-17T14:14:49.570Z,34.75
2022-12-17T14:17:20.173Z,33.25
2022-12-17T14:19:58.951Z,34.50
2022-12-17T14:22:33.301Z,35.90
2022-12-17T14:25:00.839Z,34.67
2022-12-17T14:27:33.371Z,34.60
2022-12-17T14:30:00.592Z,36.70
2022-12-17T14:32:36.531Z,37.00
2022-12-17T14:35:04.087Z,37.67
2022-12-17T14:37:31.142Z,37.95
2022-12-17T14:40:02.976Z,36.63
2022-12-17T14:42:30.029Z,37.10
2022-12-17T14:45:05.472Z,37.40
2022-12-17T14:47:34.982Z,38.00
2022-12-17T14:50:08.631Z,38.78
2022-12-17T14:52:35.303Z,37.33
2022-12-17T14:55:21.530Z,38.55
2022-12-17T14:57:49.166Z,37.65
2022-12-17T15:00:16.300Z,39.55
2022-12-17T15:02:45.013Z,38.08
2022-12-17T15:05:15.137Z,36.20
2022-12-17T15:07:41.873Z,35.60
2022-12-17T15:10:12.810Z,35.25
2022-12-17T15:12:42.130Z,35.33
2022-12-17T15:15:14.186Z,37.72
2022-12-17T15:17:41.138Z,37.65
2022-12-17T15:20:14.708Z,37.53
2022-12-17T15:22:41.349Z,38.53
2022-12-17T15:25:12.852Z,39.25
2022-12-17T15:27:39.453Z,41.40
2022-12-17T15:30:07.833Z,38.50
2022-12-17T15:32:35.713Z,39.03
2022-12-17T15:35:02.344Z,38.00
2022-12-17T15:37:28.999Z,37.45
2022-12-17T15:39:57.848Z,38.20
2022-12-17T15:42:39.837Z,36.38
2022-12-17T15:45:07.027Z,39.92
2022-12-17T15:47:33.674Z,38.20
2022-12-17T15:50:00.326Z,38.50
2022-12-17T15:52:30.398Z,37.15
2022-12-17T15:54:56.990Z,38.55
2022-12-17T15:57:24.682Z,36.03
2022-12-17T15:59:51.955Z,38.03
2022-12-17T16:02:18.895Z,35.25
2022-12-17T16:04:45.890Z,34.72
2022-12-17T16:07:12.543Z,35.25
2022-12-17T16:09:39.233Z,37.38
2022-12-17T16:12:06.068Z,35.22
2022-12-17T16:14:36.132Z,35.08
2022-12-17T16:17:02.916Z,34.58
2022-12-17T16:19:29.661Z,36.53
2022-12-17T16:21:56.326Z,39.00
2022-12-17T16:24:23.299Z,37.90
2022-12-17T16:26:50.228Z,36.47
2022-12-17T16:29:16.861Z,35.40
2022-12-17T16:31:43.601Z,38.13
2022-12-17T16:34:11.206Z,35.72
2022-12-17T16:36:37.853Z,36.17
2022-12-17T16:39:05.880Z,35.90
2022-12-17T16:41:33.703Z,37.20
2022-12-17T16:44:01.095Z,38.25
2022-12-17T16:46:38.853Z,40.15
2022-12-17T16:49:13.333Z,38.33
2022-12-17T16:51:41.137Z,38.47
2022-12-17T16:54:10.939Z,37.92
2022-12-17T16:56:40.439Z,38.78
2022-12-17T16:59:08.372Z,34.92
2022-12-17T17:01:37.814Z,36.58
2022-12-17T17:04:07.312Z,36.30
2022-12-17T17:06:39.007Z,36.95
2022-12-17T17:09:06.160Z,36.35
2022-12-17T17:11:33.109Z,36.42
2022-12-17T17:14:00.050Z,36.00
2022-12-17T17:16:27.372Z,35.13
2022-12-17T17:18:54.602Z,35.65
2022-12-17T17:21:31.231Z,35.95
2022-12-17T17:24:01.237Z,33.47
2022-12-17T17:26:31.853Z,32.95
2022-12-17T17:28:59.189Z,31.50
2022-12-17T17:31:46.510Z,34.10
2022-12-17T17:34:15.820Z,37.88
2022-12-17T17:36:43.062Z,36.20
2022-12-17T17:39:09.793Z,35.58
2022-12-17T17:41:36.913Z,36.88
2022-12-17T17:44:09.156Z,35.85
2022-12-17T17:46:36.491Z,37.25
2022-12-17T17:49:06.148Z,35.17
2022-12-17T17:52:08.518Z,37.28
2022-12-17T17:54:24.339Z,37.97
2022-12-17T17:56:50.921Z,36.35
2022-12-17T17:59:19.434Z,37.40
2022-12-17T18:01:49.676Z,38.03
2022-12-17T18:04:20.176Z,37.38
2022-12-17T18:07:16.520Z,34.35
2022-12-17T18:09:35.242Z,30.45
2022-12-17T18:12:22.763Z,34.55
2022-12-17T18:15:12.495Z,35.10
2022-12-17T18:17:36.294Z,35.58
2022-12-17T18:20:03.438Z,34.85
2022-12-17T18:22:30.109Z,35.38
2022-12-17T18:24:56.845Z,37.05
2022-12-17T18:27:23.496Z,34.20
2022-12-17T18:29:50.528Z,37.28
2022-12-17T18:32:17.129Z,37.35
2022-12-17T18:34:43.826Z,38.17
2022-12-17T18:37:10.507Z,34.50
2022-12-17T18:39:37.242Z,33.28
2022-12-17T18:42:19.201Z,31.75
2022-12-17T18:44:45.895Z,33.22
2022-12-17T18:47:12.674Z,33.35
2022-12-17T18:49:39.608Z,34.30
2022-12-17T18:52:09.415Z,32.40
2022-12-17T18:54:39.735Z,33.70
2022-12-17T18:57:06.389Z,32.08
2022-12-17T18:59:32.970Z,35.72
2022-12-17T19:02:00.801Z,36.17
2022-12-17T19:04:27.903Z,37.17
2022-12-17T19:06:55.178Z,36.13
2022-12-17T19:09:34.018Z,36.30
2022-12-17T19:12:00.640Z,36.92
2022-12-17T19:14:27.260Z,36.40
2022-12-17T19:16:55.740Z,37.58
2022-12-17T19:19:23.094Z,35.58
2022-12-17T19:21:51.931Z,36.15
2022-12-17T19:24:21.067Z,35.80
2022-12-17T19:26:48.813Z,34.17
2022-12-17T19:29:17.609Z,34.92
2022-12-17T19:31:44.780Z,34.28
2022-12-17T19:34:13.947Z,34.08
2022-12-17T19:36:41.289Z,36.33
2022-12-17T19:39:11.477Z,37.10
2022-12-17T19:41:39.079Z,34.28
2022-12-17T19:44:08.474Z,36.90
2022-12-17T19:46:36.203Z,36.25
2022-12-17T19:49:04.179Z,36.88
2022-12-17T19:51:32.239Z,33.55
2022-12-17T19:54:08.415Z,37.03
2022-12-17T19:56:35.872Z,36.53
2022-12-17T19:59:07.314Z,37.10
2022-12-17T20:01:36.932Z,36.95
2022-12-17T20:04:04.285Z,35.70
2022-12-17T20:06:32.938Z,34.72
2022-12-17T20:09:00.835Z,36.95
2022-12-17T20:11:36.021Z,38.10
2022-12-17T20:14:18.191Z,38.92
2022-12-17T20:16:51.266Z,36.78
2022-12-17T20:19:21.353Z,38.58
2022-12-17T20:21:48.764Z,38.15
2022-12-17T20:24:16.757Z,34.20
2022-12-17T20:26:44.844Z,34.97
2022-12-17T20:29:14.206Z,37.50
2022-12-17T20:31:48.048Z,37.78
2022-12-17T20:34:18.202Z,32.67
2022-12-17T20:36:45.110Z,31.65
2022-12-17T20:39:12.465Z,34.08
2022-12-17T20:41:40.268Z,35.30
2022-12-17T20:44:10.743Z,36.10
2022-12-17T20:46:38.051Z,37.88
2022-12-17T20:49:05.713Z,38.80
2022-12-17T20:51:33.087Z,39.10
2022-12-17T20:54:01.417Z,43.65
2022-12-17T20:56:31.254Z,38.03
2022-12-17T20:59:00.761Z,37.70
2022-12-17T21:01:29.336Z,37.40
2022-12-17T21:03:57.671Z,34.60
2022-12-17T21:06:28.531Z,38.28
2022-12-17T21:08:55.822Z,37.45
2022-12-17T21:11:26.145Z,36.10
2022-12-17T21:13:53.947Z,34.63
2022-12-17T21:16:24.929Z,34.80
2022-12-17T21:18:53.264Z,33.92
2022-12-17T21:21:25.083Z,32.50
2022-12-17T21:23:52.255Z,35.80
2022-12-17T21:26:21.976Z,43.20
2022-12-17T21:28:51.723Z,40.25
2022-12-17T21:31:24.027Z,39.10
2022-12-17T21:33:52.848Z,40.58
2022-12-17T21:36:22.706Z,35.50
2022-12-17T21:38:50.522Z,38.53
2022-12-17T21:41:22.658Z,38.97
2022-12-17T21:43:55.950Z,36.67
2022-12-17T21:46:23.800Z,34.23
2022-12-17T21:48:51.899Z,36.30
2022-12-17T21:51:18.610Z,36.97
2022-12-17T21:53:45.662Z,39.90
2022-12-17T21:56:15.848Z,40.80
2022-12-17T21:58:44.245Z,36.57
2022-12-17T22:01:18.753Z,39.63
2022-12-17T22:03:52.521Z,37.13
2022-12-17T22:06:25.809Z,34.83
2022-12-17T22:08:57.264Z,32.90
2022-12-17T22:11:27.817Z,29.00
2022-12-17T22:14:07.517Z,34.57
2022-12-17T22:16:43.217Z,34.97
2022-12-17T22:19:12.420Z,35.80
2022-12-17T22:21:41.147Z,31.60
2022-12-17T22:24:11.912Z,34.53
2022-12-17T22:26:38.499Z,34.03
2022-12-17T22:29:05.171Z,34.07
2022-12-17T22:31:47.117Z,32.63
2022-12-17T22:34:45.062Z,33.43
2022-12-17T22:39:37.283Z,33.35
2022-12-17T22:44:37.336Z,32.43
2022-12-17T22:45:39.232Z,32.90
2022-12-17T22:48:08.122Z,34.83
2022-12-17T22:50:38.137Z,35.73
2022-12-17T22:53:14.359Z,38.20
2022-12-17T22:55:41.414Z,40.80
2022-12-17T22:58:08.351Z,40.27
2022-12-17T23:00:36.602Z,38.53
2022-12-17T23:03:03.753Z,39.07
2022-12-17T23:05:31.682Z,40.13
2022-12-17T23:07:58.700Z,39.37
2022-12-17T23:10:26.757Z,42.00
2022-12-17T23:12:55.056Z,40.23
2022-12-17T23:15:22.662Z,39.20
2022-12-17T23:17:50.243Z,40.47
2022-12-17T23:20:17.045Z,38.97
2022-12-17T23:22:46.389Z,37.85
2022-12-17T23:25:14.101Z,38.60
2022-12-17T23:27:43.651Z,37.63
2022-12-17T23:30:11.378Z,38.45
2022-12-17T23:32:38.371Z,37.85
2022-12-17T23:35:07.086Z,39.10
2022-12-17T23:37:38.150Z,38.40
2022-12-17T23:40:09.338Z,36.35
2022-12-17T23:42:35.957Z,37.63
2022-12-17T23:45:02.670Z,35.47
2022-12-17T23:47:29.277Z,37.20
2022-12-17T23:49:55.920Z,35.95
2022-12-17T23:52:22.636Z,37.75
2022-12-17T23:54:49.288Z,38.08
2022-12-17T23:57:15.940Z,37.97
2022-12-17T23:59:42.540Z,36.80
